createdAt,value
2023-03-06T00:00:33.392Z,424.00
2023-03-06T00:01:33.529Z,425.00
2023-03-06T00:02:33.360Z,428.00
2023-03-06T00:03:33.600Z,425.00
2023-03-06T00:04:33.341Z,422.00
2023-03-06T00:05:33.448Z,422.00
2023-03-06T00:06:33.308Z,418.00
2023-03-06T00:07:33.441Z,415.00
2023-03-06T00:08:33.280Z,413.00
2023-03-06T00:09:33.315Z,412.00
2023-03-06T00:10:33.264Z,413.00
2023-03-06T00:11:33.352Z,412.00
2023-03-06T00:12:33.230Z,411.00
2023-03-06T00:13:33.369Z,408.00
2023-03-06T00:14:33.372Z,409.00
2023-03-06T00:15:33.549Z,412.00
2023-03-06T00:16:33.261Z,410.00
2023-03-06T00:17:35.349Z,416.00
2023-03-06T00:18:33.158Z,411.00
2023-03-06T00:19:33.265Z,415.00
2023-03-06T00:20:33.111Z,413.00
2023-03-06T00:21:33.230Z,407.00
2023-03-06T00:22:33.112Z,407.00
2023-03-06T00:23:33.264Z,402.00
2023-03-06T00:24:33.082Z,405.00
2023-03-06T00:25:33.249Z,406.00
2023-03-06T00:26:33.050Z,406.00
2023-03-06T00:27:33.143Z,406.00
2023-03-06T00:28:33.016Z,405.00
2023-03-06T00:29:33.067Z,407.00
2023-03-06T00:30:32.997Z,406.00
2023-03-06T00:31:33.206Z,405.00
2023-03-06T00:32:33.061Z,405.00
2023-03-06T00:33:55.035Z,408.00
2023-03-06T00:34:32.944Z,411.00
2023-03-06T00:35:33.101Z,407.00
2023-03-06T00:36:32.917Z,406.00
2023-03-06T00:37:32.956Z,407.00
2023-03-06T00:38:32.894Z,406.00
2023-03-06T00:39:33.955Z,405.00
2023-03-06T00:40:32.865Z,405.00
2023-03-06T00:41:32.974Z,402.00
2023-03-06T00:42:32.835Z,402.00
2023-03-06T00:43:32.954Z,400.00
2023-03-06T00:44:32.832Z,402.00
2023-03-06T00:45:34.033Z,402.00
2023-03-06T00:46:32.783Z,404.00
2023-03-06T00:47:32.873Z,406.00
2023-03-06T00:48:32.762Z,407.00
2023-03-06T00:49:32.866Z,404.00
2023-03-06T00:50:32.733Z,399.00
2023-03-06T00:51:53.833Z,400.00
2023-03-06T00:52:32.718Z,400.00
2023-03-06T00:53:32.898Z,405.00
2023-03-06T00:54:32.681Z,405.00
2023-03-06T00:55:32.767Z,404.00
2023-03-06T00:56:32.658Z,402.00
2023-03-06T00:57:32.797Z,399.00
2023-03-06T00:58:32.630Z,400.00
2023-03-06T00:59:32.733Z,398.00
2023-03-06T01:00:32.610Z,399.00
2023-03-06T01:01:33.809Z,401.00
2023-03-06T01:02:32.648Z,399.00
2023-03-06T01:03:33.692Z,401.00
2023-03-06T01:04:32.578Z,402.00
2023-03-06T01:05:32.592Z,402.00
2023-03-06T01:06:32.519Z,400.00
2023-03-06T01:07:32.678Z,399.00
2023-03-06T01:08:32.502Z,398.00
2023-03-06T01:09:33.591Z,399.00
2023-03-06T01:10:32.471Z,400.00
2023-03-06T01:11:32.606Z,401.00
2023-03-06T01:12:32.445Z,397.00
2023-03-06T01:13:32.586Z,395.00
2023-03-06T01:14:32.414Z,399.00
2023-03-06T01:15:32.496Z,397.00
2023-03-06T01:16:32.523Z,393.00
2023-03-06T01:17:32.505Z,393.00
2023-03-06T01:18:32.398Z,393.00
2023-03-06T01:19:33.516Z,394.00
2023-03-06T01:20:32.343Z,395.00
2023-03-06T01:22:41.858Z,464.00
2023-03-06T01:23:41.647Z,402.00
2023-03-06T01:24:41.772Z,399.00
2023-03-06T01:25:41.620Z,395.00
2023-03-06T01:26:41.717Z,397.00
2023-03-06T01:27:41.577Z,396.00
2023-03-06T01:28:41.658Z,395.00
2023-03-06T01:29:41.571Z,394.00
2023-03-06T01:30:41.676Z,395.00
2023-03-06T01:31:41.565Z,395.00
2023-03-06T01:32:42.699Z,395.00
2023-03-06T01:33:41.515Z,397.00
2023-03-06T01:34:41.678Z,395.00
2023-03-06T01:35:41.528Z,395.00
2023-03-06T01:36:41.668Z,397.00
2023-03-06T01:37:41.472Z,396.00
2023-03-06T01:38:41.537Z,396.00
2023-03-06T01:39:41.436Z,397.00
2023-03-06T01:40:42.509Z,398.00
2023-03-06T01:41:41.415Z,396.00
2023-03-06T01:42:41.564Z,398.00
2023-03-06T01:43:41.389Z,399.00
2023-03-06T01:44:41.548Z,397.00
2023-03-06T01:45:41.386Z,398.00
2023-03-06T01:46:41.511Z,393.00
2023-03-06T01:47:41.333Z,393.00
2023-03-06T01:48:41.464Z,392.00
2023-03-06T01:49:41.299Z,389.00
2023-03-06T01:50:41.452Z,389.00
2023-03-06T01:51:41.298Z,391.00
2023-03-06T01:52:41.381Z,391.00
2023-03-06T01:53:41.264Z,390.00
2023-03-06T01:54:41.368Z,389.00
2023-03-06T01:55:41.235Z,388.00
2023-03-06T01:56:41.263Z,385.00
2023-03-06T01:57:41.209Z,388.00
2023-03-06T01:58:41.301Z,389.00
2023-03-06T01:59:41.183Z,391.00
2023-03-06T02:00:41.281Z,388.00
2023-03-06T02:01:41.150Z,388.00
2023-03-06T02:02:41.213Z,388.00
2023-03-06T02:03:41.122Z,390.00
2023-03-06T02:04:41.328Z,387.00
2023-03-06T02:05:41.118Z,391.00
2023-03-06T02:06:41.183Z,390.00
2023-03-06T02:07:41.122Z,391.00
2023-03-06T02:08:41.171Z,388.00
2023-03-06T02:09:41.042Z,387.00
2023-03-06T02:10:41.210Z,387.00
2023-03-06T02:11:41.052Z,386.00
2023-03-06T02:12:41.190Z,384.00
2023-03-06T02:13:41.001Z,382.00
2023-03-06T02:14:43.080Z,384.00
2023-03-06T02:15:40.974Z,391.00
2023-03-06T02:16:41.093Z,387.00
2023-03-06T02:17:40.941Z,384.00
2023-03-06T02:18:41.107Z,386.00
2023-03-06T02:19:40.909Z,383.00
2023-03-06T02:20:41.081Z,379.00
2023-03-06T02:21:40.890Z,382.00
2023-03-06T02:22:41.030Z,381.00
2023-03-06T02:23:40.871Z,382.00
2023-03-06T02:24:40.900Z,383.00
2023-03-06T02:25:40.850Z,383.00
2023-03-06T02:26:40.905Z,386.00
2023-03-06T02:27:40.810Z,385.00
2023-03-06T02:28:40.939Z,387.00
2023-03-06T02:29:40.779Z,390.00
2023-03-06T02:30:42.971Z,391.00
2023-03-06T02:31:40.763Z,393.00
2023-03-06T02:32:42.990Z,392.00
2023-03-06T02:33:40.737Z,394.00
2023-03-06T02:34:40.828Z,392.00
2023-03-06T02:35:40.747Z,389.00
2023-03-06T02:36:40.819Z,388.00
2023-03-06T02:37:40.679Z,388.00
2023-03-06T02:39:01.781Z,385.00
2023-03-06T02:39:40.648Z,385.00
2023-03-06T02:40:40.839Z,384.00
2023-03-06T02:41:40.633Z,383.00
2023-03-06T02:42:41.791Z,386.00
2023-03-06T02:43:40.594Z,388.00
2023-03-06T02:44:40.708Z,389.00
2023-03-06T02:45:40.575Z,389.00
2023-03-06T02:46:40.637Z,388.00
2023-03-06T02:47:40.557Z,388.00
2023-03-06T02:48:40.726Z,391.00
2023-03-06T02:49:40.517Z,392.00
2023-03-06T02:50:40.727Z,393.00
2023-03-06T02:51:40.486Z,394.00
2023-03-06T02:52:40.545Z,396.00
2023-03-06T02:53:40.470Z,395.00
2023-03-06T02:54:40.522Z,394.00
2023-03-06T02:55:40.447Z,393.00
2023-03-06T02:56:40.560Z,392.00
2023-03-06T02:57:40.420Z,394.00
2023-03-06T02:58:40.550Z,391.00
2023-03-06T02:59:40.381Z,394.00
2023-03-06T03:00:40.430Z,395.00
2023-03-06T03:01:40.422Z,397.00
2023-03-06T03:02:40.411Z,399.00
2023-03-06T03:03:40.345Z,399.00
2023-03-06T03:04:40.520Z,397.00
2023-03-06T03:05:40.305Z,397.00
2023-03-06T03:06:41.498Z,400.00
2023-03-06T03:07:40.271Z,399.00
2023-03-06T03:08:40.432Z,399.00
2023-03-06T03:09:40.239Z,400.00
2023-03-06T03:10:41.286Z,397.00
2023-03-06T03:11:40.220Z,395.00
2023-03-06T03:12:40.350Z,399.00
2023-03-06T03:13:40.187Z,399.00
2023-03-06T03:14:40.370Z,397.00
2023-03-06T03:15:40.218Z,400.00
2023-03-06T03:16:40.269Z,400.00
2023-03-06T03:17:40.147Z,400.00
2023-03-06T03:18:40.348Z,398.00
2023-03-06T03:19:40.116Z,397.00
2023-03-06T03:20:40.243Z,395.00
2023-03-06T03:21:40.078Z,398.00
2023-03-06T03:22:40.169Z,395.00
2023-03-06T03:23:40.105Z,396.00
2023-03-06T03:24:40.241Z,401.00
2023-03-06T03:25:40.039Z,405.00
2023-03-06T03:26:40.153Z,409.00
2023-03-06T03:27:40.019Z,406.00
2023-03-06T03:28:40.080Z,404.00
2023-03-06T03:29:39.990Z,406.00
2023-03-06T03:30:40.061Z,406.00
2023-03-06T03:31:39.961Z,406.00
2023-03-06T03:32:40.068Z,408.00
2023-03-06T03:33:39.954Z,409.00
2023-03-06T03:34:40.091Z,409.00
2023-03-06T03:35:39.958Z,410.00
2023-03-06T03:36:41.115Z,411.00
2023-03-06T03:37:39.887Z,413.00
2023-03-06T03:38:39.949Z,412.00
2023-03-06T03:39:39.851Z,413.00
2023-03-06T03:40:39.998Z,418.00
2023-03-06T03:41:39.829Z,416.00
2023-03-06T03:42:40.001Z,414.00
2023-03-06T03:43:39.799Z,413.00
2023-03-06T03:45:00.943Z,410.00
2023-03-06T03:45:39.801Z,410.00
2023-03-06T03:46:39.908Z,408.00
2023-03-06T03:47:39.750Z,409.00
2023-03-06T03:48:40.811Z,408.00
2023-03-06T03:49:39.726Z,409.00
2023-03-06T03:50:39.874Z,412.00
2023-03-06T03:51:39.701Z,412.00
2023-03-06T03:52:39.817Z,414.00
2023-03-06T03:53:39.680Z,413.00
2023-03-06T03:54:39.798Z,413.00
2023-03-06T03:55:39.641Z,412.00
2023-03-06T03:56:39.667Z,411.00
2023-03-06T03:57:39.624Z,410.00
2023-03-06T03:58:39.732Z,412.00
2023-03-06T03:59:39.598Z,413.00
2023-03-06T04:00:40.717Z,413.00
2023-03-06T04:01:39.947Z,412.00
2023-03-06T04:02:39.676Z,415.00
2023-03-06T04:03:39.540Z,411.00
2023-03-06T04:04:39.731Z,410.00
2023-03-06T04:05:39.527Z,409.00
2023-03-06T04:06:39.600Z,411.00
2023-03-06T04:07:39.484Z,413.00
2023-03-06T04:08:39.586Z,412.00
2023-03-06T04:09:39.454Z,413.00
2023-03-06T04:10:39.622Z,411.00
2023-03-06T04:11:39.425Z,414.00
2023-03-06T04:12:41.546Z,413.00
2023-03-06T04:13:39.405Z,410.00
2023-03-06T04:14:39.495Z,414.00
2023-03-06T04:15:39.375Z,411.00
2023-03-06T04:16:39.424Z,409.00
2023-03-06T04:17:39.352Z,410.00
2023-03-06T04:18:39.515Z,409.00
2023-03-06T04:19:39.323Z,409.00
2023-03-06T04:20:39.493Z,409.00
2023-03-06T04:21:39.294Z,411.00
2023-03-06T04:22:39.432Z,411.00
2023-03-06T04:23:39.274Z,411.00
2023-03-06T04:24:39.317Z,409.00
2023-03-06T04:25:39.242Z,407.00
2023-03-06T04:26:39.300Z,410.00
2023-03-06T04:27:39.223Z,409.00
2023-03-06T04:28:39.382Z,410.00
2023-03-06T04:29:39.189Z,411.00
2023-03-06T04:30:39.329Z,410.00
2023-03-06T04:31:39.268Z,408.00
2023-03-06T04:32:39.424Z,405.00
2023-03-06T04:33:39.149Z,405.00
2023-03-06T04:34:40.275Z,409.00
2023-03-06T04:35:39.174Z,410.00
2023-03-06T04:36:39.239Z,412.00
2023-03-06T04:37:39.120Z,412.00
2023-03-06T04:38:39.232Z,411.00
2023-03-06T04:39:39.054Z,411.00
2023-03-06T04:40:39.248Z,410.00
2023-03-06T04:41:39.041Z,409.00
2023-03-06T04:42:39.134Z,408.00
2023-03-06T04:43:39.005Z,411.00
2023-03-06T04:44:39.145Z,414.00
2023-03-06T04:45:39.153Z,413.00
2023-03-06T04:46:39.053Z,410.00
2023-03-06T04:47:38.963Z,408.00
2023-03-06T04:48:39.154Z,408.00
2023-03-06T04:49:38.933Z,407.00
2023-03-06T04:50:39.127Z,408.00
2023-03-06T04:51:38.907Z,409.00
2023-03-06T04:52:38.955Z,408.00
2023-03-06T04:53:38.880Z,410.00
2023-03-06T04:54:38.953Z,407.00
2023-03-06T04:55:38.847Z,405.00
2023-03-06T04:56:38.934Z,404.00
2023-03-06T04:57:38.825Z,405.00
2023-03-06T04:58:40.005Z,405.00
2023-03-06T04:59:39.289Z,406.00
2023-03-06T05:00:38.983Z,408.00
2023-03-06T05:01:38.771Z,409.00
2023-03-06T05:02:38.832Z,406.00
2023-03-06T05:03:38.756Z,402.00
2023-03-06T05:04:38.908Z,402.00
2023-03-06T05:05:38.731Z,401.00
2023-03-06T05:06:38.851Z,402.00
2023-03-06T05:07:38.699Z,405.00
2023-03-06T05:08:41.031Z,409.00
2023-03-06T05:09:39.192Z,414.00
2023-03-06T05:10:38.777Z,411.00
2023-03-06T05:11:38.666Z,412.00
2023-03-06T05:12:38.769Z,414.00
2023-03-06T05:13:38.628Z,417.00
2023-03-06T05:14:38.747Z,421.00
2023-03-06T05:15:38.588Z,426.00
2023-03-06T05:16:38.724Z,434.00
2023-03-06T05:17:38.579Z,434.00
2023-03-06T05:18:38.816Z,431.00
2023-03-06T05:19:38.524Z,430.00
2023-03-06T05:20:38.655Z,430.00
2023-03-06T05:21:38.505Z,429.00
2023-03-06T05:22:38.685Z,430.00
2023-03-06T05:23:38.535Z,432.00
2023-03-06T05:24:38.573Z,433.00
2023-03-06T05:25:38.455Z,433.00
2023-03-06T05:26:38.554Z,432.00
2023-03-06T05:27:38.473Z,433.00
2023-03-06T05:28:38.494Z,431.00
2023-03-06T05:29:38.402Z,431.00
2023-03-06T05:30:38.481Z,431.00
2023-03-06T05:31:38.413Z,431.00
2023-03-06T05:32:38.519Z,430.00
2023-03-06T05:33:38.375Z,432.00
2023-03-06T05:34:38.492Z,430.00
2023-03-06T05:35:38.357Z,430.00
2023-03-06T05:36:40.534Z,431.00
2023-03-06T05:37:38.283Z,429.00
2023-03-06T05:38:38.385Z,429.00
2023-03-06T05:39:38.264Z,429.00
2023-03-06T05:40:38.405Z,430.00
2023-03-06T05:41:38.246Z,426.00
2023-03-06T05:42:38.392Z,429.00
2023-03-06T05:43:38.215Z,423.00
2023-03-06T05:44:38.380Z,420.00
2023-03-06T05:45:38.284Z,420.00
2023-03-06T05:46:38.324Z,419.00
2023-03-06T05:47:38.176Z,417.00
2023-03-06T05:48:38.315Z,419.00
2023-03-06T05:49:38.137Z,417.00
2023-03-06T05:50:38.284Z,415.00
2023-03-06T05:51:38.122Z,415.00
2023-03-06T05:52:38.215Z,416.00
2023-03-06T05:53:38.087Z,414.00
2023-03-06T05:54:38.304Z,412.00
2023-03-06T05:55:38.125Z,412.00
2023-03-06T05:56:38.094Z,411.00
2023-03-06T05:57:38.056Z,407.00
2023-03-06T05:58:38.168Z,409.00
2023-03-06T05:59:38.013Z,413.00
2023-03-06T06:00:38.122Z,416.00
2023-03-06T06:01:37.983Z,413.00
2023-03-06T06:02:38.304Z,416.00
2023-03-06T06:03:38.171Z,420.00
2023-03-06T06:04:38.134Z,421.00
2023-03-06T06:05:37.939Z,420.00
2023-03-06T06:06:38.011Z,421.00
2023-03-06T06:07:37.900Z,418.00
2023-03-06T06:08:38.003Z,417.00
2023-03-06T06:09:37.881Z,417.00
2023-03-06T06:10:38.054Z,415.00
2023-03-06T06:11:37.851Z,417.00
2023-03-06T06:12:38.026Z,418.00
2023-03-06T06:13:37.835Z,422.00
2023-03-06T06:14:37.901Z,428.00
2023-03-06T06:15:37.926Z,432.00
2023-03-06T06:16:58.828Z,434.00
2023-03-06T06:17:37.776Z,435.00
2023-03-06T06:18:40.985Z,435.00
2023-03-06T06:19:37.758Z,437.00
2023-03-06T06:20:37.939Z,435.00
2023-03-06T06:21:37.734Z,433.00
2023-03-06T06:22:37.910Z,435.00
2023-03-06T06:23:37.687Z,437.00
2023-03-06T06:24:37.731Z,436.00
2023-03-06T06:25:37.675Z,432.00
2023-03-06T06:26:38.738Z,431.00
2023-03-06T06:27:37.669Z,424.00
2023-03-06T06:29:46.990Z,482.00
2023-03-06T06:30:46.959Z,439.00
2023-03-06T06:31:47.040Z,428.00
2023-03-06T06:32:46.890Z,424.00
2023-03-06T06:33:48.029Z,418.00
2023-03-06T06:34:46.867Z,415.00
2023-03-06T06:35:47.031Z,415.00
2023-03-06T06:36:46.869Z,414.00
2023-03-06T06:37:46.976Z,419.00
2023-03-06T06:38:46.845Z,420.00
2023-03-06T06:39:49.040Z,420.00
2023-03-06T06:40:58.401Z,418.00
2023-03-06T06:42:00.053Z,416.00
2023-03-06T06:42:47.952Z,415.00
2023-03-06T06:43:46.748Z,418.00
2023-03-06T06:44:46.951Z,415.00
2023-03-06T06:45:48.898Z,417.00
2023-03-06T06:47:47.864Z,416.00
2023-03-06T06:48:46.688Z,418.00
2023-03-06T06:49:46.778Z,419.00
2023-03-06T06:50:46.683Z,420.00
2023-03-06T06:51:46.758Z,419.00
2023-03-06T06:52:46.684Z,417.00
2023-03-06T06:53:46.728Z,416.00
2023-03-06T06:54:46.631Z,416.00
2023-03-06T06:55:46.827Z,415.00
2023-03-06T06:56:46.588Z,417.00
2023-03-06T06:57:46.627Z,416.00
2023-03-06T06:58:46.566Z,420.00
2023-03-06T06:59:46.745Z,419.00
2023-03-06T07:00:46.535Z,420.00
2023-03-06T07:01:46.649Z,423.00
2023-03-06T07:02:46.516Z,420.00
2023-03-06T07:03:46.666Z,421.00
2023-03-06T07:05:02.498Z,421.00
2023-03-06T07:05:47.502Z,423.00
2023-03-06T07:06:46.551Z,423.00
2023-03-06T07:07:46.445Z,424.00
2023-03-06T07:08:47.667Z,423.00
2023-03-06T07:09:46.493Z,423.00
2023-03-06T07:10:47.570Z,421.00
2023-03-06T07:11:46.446Z,423.00
2023-03-06T07:12:46.473Z,420.00
2023-03-06T07:13:46.377Z,419.00
2023-03-06T07:14:46.486Z,417.00
2023-03-06T07:15:46.367Z,410.00
2023-03-06T07:16:46.447Z,411.00
2023-03-06T07:17:48.261Z,409.00
2023-03-06T07:18:46.490Z,409.00
2023-03-06T07:19:46.296Z,407.00
2023-03-06T07:20:46.379Z,408.00
2023-03-06T07:21:46.336Z,405.00
2023-03-06T07:22:51.503Z,402.00
2023-03-06T07:23:47.234Z,405.00
2023-03-06T07:24:46.348Z,406.00
2023-03-06T07:25:46.195Z,407.00
2023-03-06T07:26:46.285Z,408.00
2023-03-06T07:27:52.700Z,407.00
2023-03-06T07:28:52.737Z,405.00
2023-03-06T07:29:47.166Z,404.00
2023-03-06T07:30:47.225Z,405.00
2023-03-06T07:31:46.189Z,407.00
2023-03-06T07:32:47.269Z,409.00
2023-03-06T07:33:47.109Z,408.00
2023-03-06T07:34:46.227Z,406.00
2023-03-06T07:35:46.202Z,405.00
2023-03-06T07:36:46.171Z,404.00
2023-03-06T07:37:46.054Z,407.00
2023-03-06T07:38:46.108Z,408.00
2023-03-06T07:39:46.016Z,409.00
2023-03-06T07:40:46.167Z,408.00
2023-03-06T07:41:46.014Z,407.00
2023-03-06T07:42:46.177Z,406.00
2023-03-06T07:43:45.969Z,403.00
2023-03-06T07:45:55.288Z,444.00
2023-03-06T07:46:55.257Z,409.00
2023-03-06T07:47:55.339Z,406.00
2023-03-06T07:48:55.181Z,403.00
2023-03-06T07:49:55.262Z,400.00
2023-03-06T07:50:55.119Z,399.00
2023-03-06T07:51:55.287Z,397.00
2023-03-06T07:52:55.132Z,395.00
2023-03-06T07:53:55.222Z,393.00
2023-03-06T07:54:55.078Z,392.00
2023-03-06T07:55:55.168Z,392.00
2023-03-06T07:56:55.050Z,393.00
2023-03-06T07:57:55.201Z,395.00
2023-03-06T07:58:56.151Z,395.00
2023-03-06T07:59:55.257Z,398.00
2023-03-06T08:00:54.995Z,396.00
2023-03-06T08:01:55.183Z,395.00
2023-03-06T08:02:55.007Z,398.00
2023-03-06T08:03:55.096Z,399.00
2023-03-06T08:04:54.962Z,398.00
2023-03-06T08:06:16.042Z,396.00
2023-03-06T08:06:54.919Z,397.00
2023-03-06T08:07:55.079Z,400.00
2023-03-06T08:08:54.888Z,399.00
2023-03-06T08:09:55.028Z,397.00
2023-03-06T08:10:54.932Z,399.00
2023-03-06T08:11:55.967Z,400.00
2023-03-06T08:12:54.836Z,403.00
2023-03-06T08:13:54.884Z,403.00
2023-03-06T08:14:54.805Z,400.00
2023-03-06T08:15:54.928Z,400.00
2023-03-06T08:16:54.804Z,400.00
2023-03-06T08:17:56.004Z,399.00
2023-03-06T08:18:54.752Z,401.00
2023-03-06T08:19:54.883Z,399.00
2023-03-06T08:20:54.725Z,398.00
2023-03-06T08:21:54.821Z,399.00
2023-03-06T08:22:54.712Z,397.00
2023-03-06T08:23:54.833Z,397.00
2023-03-06T08:24:54.671Z,398.00
2023-03-06T08:25:54.802Z,399.00
2023-03-06T08:26:54.653Z,396.00
2023-03-06T08:27:55.758Z,396.00
2023-03-06T08:28:54.663Z,396.00
2023-03-06T08:29:54.672Z,398.00
2023-03-06T08:30:54.590Z,396.00
2023-03-06T08:31:54.894Z,393.00
2023-03-06T08:32:54.735Z,395.00
2023-03-06T08:33:54.661Z,396.00
2023-03-06T08:34:54.561Z,397.00
2023-03-06T08:35:54.712Z,399.00
2023-03-06T08:36:54.521Z,399.00
2023-03-06T08:37:54.701Z,396.00
2023-03-06T08:38:54.503Z,398.00
2023-03-06T08:39:56.632Z,400.00
2023-03-06T08:40:54.482Z,401.00
2023-03-06T08:42:17.541Z,398.00
2023-03-06T08:42:54.437Z,399.00
2023-03-06T08:43:54.511Z,401.00
2023-03-06T08:44:54.407Z,400.00
2023-03-06T08:45:54.558Z,402.00
2023-03-06T08:46:54.561Z,403.00
2023-03-06T08:47:54.587Z,400.00
2023-03-06T08:48:54.350Z,400.00
2023-03-06T08:49:54.442Z,400.00
2023-03-06T08:50:54.331Z,396.00
2023-03-06T08:51:54.459Z,397.00
2023-03-06T08:52:54.327Z,396.00
2023-03-06T08:53:54.404Z,397.00
2023-03-06T08:54:54.318Z,394.00
2023-03-06T08:55:54.417Z,395.00
2023-03-06T08:56:54.237Z,395.00
2023-03-06T08:57:54.347Z,395.00
2023-03-06T08:58:54.245Z,397.00
2023-03-06T08:59:54.276Z,397.00
2023-03-06T09:00:54.380Z,395.00
2023-03-06T09:01:54.375Z,391.00
2023-03-06T09:02:54.207Z,396.00
2023-03-06T09:03:55.405Z,395.00
2023-03-06T09:04:54.216Z,397.00
2023-03-06T09:05:54.362Z,392.00
2023-03-06T09:06:55.550Z,394.00
2023-03-06T09:07:54.224Z,394.00
2023-03-06T09:08:54.124Z,391.00
2023-03-06T09:09:56.276Z,389.00
2023-03-06T09:10:54.101Z,390.00
2023-03-06T09:11:54.191Z,393.00
2023-03-06T09:12:55.020Z,392.00
2023-03-06T09:13:54.126Z,392.00
2023-03-06T09:14:54.004Z,390.00
2023-03-06T09:15:54.169Z,390.00
2023-03-06T09:16:54.085Z,386.00
2023-03-06T09:17:54.242Z,389.00
2023-03-06T09:18:53.970Z,395.00
2023-03-06T09:19:54.045Z,395.00
2023-03-06T09:20:53.935Z,392.00
2023-03-06T09:21:55.397Z,396.00
2023-03-06T09:22:53.936Z,394.00
2023-03-06T09:23:54.018Z,394.00
2023-03-06T09:24:53.867Z,394.00
2023-03-06T09:25:53.957Z,393.00
2023-03-06T09:26:53.851Z,395.00
2023-03-06T09:28:14.920Z,394.00
2023-03-06T09:28:53.834Z,392.00
2023-03-06T09:29:53.919Z,393.00
2023-03-06T09:30:53.932Z,390.00
2023-03-06T09:31:53.960Z,391.00
2023-03-06T09:32:53.768Z,391.00
2023-03-06T09:33:54.240Z,391.00
2023-03-06T09:34:53.818Z,390.00
2023-03-06T09:35:53.881Z,388.00
2023-03-06T09:36:57.167Z,388.00
2023-03-06T09:37:53.710Z,390.00
2023-03-06T09:38:55.968Z,387.00
2023-03-06T09:39:53.690Z,386.00
2023-03-06T09:40:53.771Z,394.00
2023-03-06T09:41:53.711Z,395.00
2023-03-06T09:42:53.801Z,395.00
2023-03-06T09:43:53.627Z,392.00
2023-03-06T09:44:53.759Z,396.00
2023-03-06T09:45:53.678Z,396.00
2023-03-06T09:46:53.806Z,399.00
2023-03-06T09:47:53.617Z,398.00
2023-03-06T09:48:54.627Z,394.00
2023-03-06T09:49:53.554Z,394.00
2023-03-06T09:50:53.648Z,392.00
2023-03-06T09:51:53.794Z,391.00
2023-03-06T09:52:54.636Z,394.00
2023-03-06T09:53:53.504Z,392.00
2023-03-06T09:54:53.605Z,395.00
2023-03-06T09:55:53.523Z,399.00
2023-03-06T09:56:53.653Z,398.00
2023-03-06T09:57:53.470Z,395.00
2023-03-06T09:58:53.484Z,399.00
2023-03-06T09:59:53.404Z,399.00
2023-03-06T10:00:53.518Z,397.00
2023-03-06T10:01:53.442Z,396.00
2023-03-06T10:02:55.632Z,399.00
2023-03-06T10:03:53.363Z,394.00
2023-03-06T10:05:14.525Z,393.00
2023-03-06T10:05:53.328Z,392.00
2023-03-06T10:06:53.433Z,394.00
2023-03-06T10:07:53.300Z,394.00
2023-03-06T10:08:54.555Z,391.00
2023-03-06T10:09:53.284Z,392.00
2023-03-06T10:10:53.470Z,386.00
2023-03-06T10:11:53.252Z,394.00
2023-03-06T10:12:53.428Z,395.00
2023-03-06T10:13:53.220Z,394.00
2023-03-06T10:14:54.394Z,389.00
2023-03-06T10:15:53.248Z,391.00
2023-03-06T10:16:53.311Z,388.00
2023-03-06T10:17:53.166Z,389.00
2023-03-06T10:18:53.235Z,392.00
2023-03-06T10:19:53.204Z,392.00
2023-03-06T10:20:55.263Z,393.00
2023-03-06T10:21:53.148Z,394.00
2023-03-06T10:23:01.119Z,394.00
2023-03-06T10:23:54.106Z,393.00
2023-03-06T10:24:53.253Z,395.00
2023-03-06T10:25:53.068Z,391.00
2023-03-06T10:26:53.357Z,390.00
2023-03-06T10:27:53.204Z,389.00
2023-03-06T10:28:53.116Z,385.00
2023-03-06T10:30:02.190Z,382.00
2023-03-06T10:30:54.122Z,383.00
2023-03-06T10:31:53.115Z,384.00
2023-03-06T10:32:53.004Z,385.00
2023-03-06T10:33:53.148Z,385.00
2023-03-06T10:34:52.942Z,388.00
2023-03-06T10:35:53.209Z,387.00
2023-03-06T10:36:52.940Z,390.00
2023-03-06T10:37:53.039Z,393.00
2023-03-06T10:38:52.896Z,392.00
2023-03-06T10:39:53.113Z,390.00
2023-03-06T10:40:52.981Z,391.00
2023-03-06T10:41:53.052Z,385.00
2023-03-06T10:43:05.121Z,391.00
2023-03-06T10:43:53.833Z,389.00
2023-03-06T10:44:52.908Z,385.00
2023-03-06T10:45:52.814Z,386.00
2023-03-06T10:46:53.865Z,386.00
2023-03-06T10:47:52.766Z,388.00
2023-03-06T10:48:52.865Z,388.00
2023-03-06T10:49:52.746Z,391.00
2023-03-06T10:50:52.931Z,383.00
2023-03-06T10:51:52.771Z,386.00
2023-03-06T10:52:52.741Z,387.00
2023-03-06T10:53:52.682Z,387.00
2023-03-06T10:54:52.826Z,388.00
2023-03-06T10:55:52.668Z,389.00
2023-03-06T10:56:52.764Z,387.00
2023-03-06T10:57:52.664Z,391.00
2023-03-06T10:58:52.741Z,392.00
2023-03-06T10:59:52.627Z,389.00
2023-03-06T11:00:52.773Z,389.00
2023-03-06T11:01:52.608Z,390.00
2023-03-06T11:02:52.714Z,390.00
2023-03-06T11:03:52.564Z,386.00
2023-03-06T11:04:54.800Z,386.00
2023-03-06T11:05:52.522Z,389.00
2023-03-06T11:06:52.683Z,393.00
2023-03-06T11:07:52.542Z,392.00
2023-03-06T11:08:52.613Z,392.00
2023-03-06T11:09:52.490Z,391.00
2023-03-06T11:10:52.652Z,390.00
2023-03-06T11:11:52.486Z,392.00
2023-03-06T11:12:53.512Z,395.00
2023-03-06T11:13:52.421Z,394.00
2023-03-06T11:14:52.531Z,394.00
2023-03-06T11:15:52.443Z,387.00
2023-03-06T11:16:52.634Z,391.00
2023-03-06T11:17:52.382Z,395.00
2023-03-06T11:18:52.504Z,396.00
2023-03-06T11:19:52.332Z,396.00
2023-03-06T11:20:53.266Z,395.00
2023-03-06T11:21:52.332Z,395.00
2023-03-06T11:24:01.853Z,443.00
2023-03-06T11:25:01.693Z,382.00
2023-03-06T11:26:01.771Z,384.00
2023-03-06T11:27:01.618Z,383.00
2023-03-06T11:28:01.718Z,385.00
2023-03-06T11:29:01.644Z,386.00
2023-03-06T11:30:01.649Z,385.00
2023-03-06T11:31:01.646Z,383.00
2023-03-06T11:32:01.770Z,382.00
2023-03-06T11:33:01.567Z,381.00
2023-03-06T11:34:01.726Z,380.00
2023-03-06T11:35:01.569Z,380.00
2023-03-06T11:36:01.554Z,379.00
2023-03-06T11:37:01.494Z,381.00
2023-03-06T11:38:01.588Z,384.00
2023-03-06T11:39:01.466Z,390.00
2023-03-06T11:40:02.556Z,385.00
2023-03-06T11:41:01.422Z,382.00
2023-03-06T11:42:01.552Z,386.00
2023-03-06T11:43:01.396Z,387.00
2023-03-06T11:44:01.616Z,385.00
2023-03-06T11:45:03.036Z,393.00
2023-03-06T11:46:01.436Z,387.00
2023-03-06T11:47:01.404Z,390.00
2023-03-06T11:48:01.531Z,385.00
2023-03-06T11:49:01.323Z,383.00
2023-03-06T11:50:01.402Z,386.00
2023-03-06T11:51:01.304Z,388.00
2023-03-06T11:52:03.523Z,385.00
2023-03-06T11:53:01.266Z,388.00
2023-03-06T11:54:01.384Z,384.00
2023-03-06T11:55:01.315Z,386.00
2023-03-06T11:56:03.396Z,389.00
2023-03-06T11:57:01.241Z,382.00
2023-03-06T11:58:03.334Z,383.00
2023-03-06T11:59:01.199Z,383.00
2023-03-06T12:00:22.249Z,382.00
2023-03-06T12:01:01.158Z,383.00
2023-03-06T12:02:01.347Z,391.00
2023-03-06T12:03:01.155Z,389.00
2023-03-06T12:04:01.247Z,389.00
2023-03-06T12:05:01.261Z,389.00
2023-03-06T12:06:01.181Z,385.00
2023-03-06T12:07:01.089Z,386.00
2023-03-06T12:08:01.231Z,390.00
2023-03-06T12:09:01.068Z,391.00
2023-03-06T12:10:01.155Z,388.00
2023-03-06T12:11:01.076Z,383.00
2023-03-06T12:12:01.245Z,379.00
2023-03-06T12:13:00.996Z,384.00
2023-03-06T12:14:03.667Z,385.00
2023-03-06T12:15:01.094Z,379.00
2023-03-06T12:16:01.064Z,384.00
2023-03-06T12:17:00.945Z,381.00
2023-03-06T12:18:01.141Z,381.00
2023-03-06T12:19:00.917Z,385.00
2023-03-06T12:20:01.027Z,384.00
2023-03-06T12:21:00.924Z,381.00
2023-03-06T12:22:01.036Z,379.00
2023-03-06T12:23:14.488Z,380.00
2023-03-06T12:24:01.873Z,379.00
2023-03-06T12:25:02.390Z,380.00
2023-03-06T12:26:00.818Z,377.00
2023-03-06T12:27:01.892Z,383.00
2023-03-06T12:28:00.814Z,388.00
2023-03-06T12:29:01.858Z,384.00
2023-03-06T12:30:00.782Z,388.00
2023-03-06T12:31:00.866Z,386.00
2023-03-06T12:32:00.842Z,387.00
2023-03-06T12:33:00.880Z,390.00
2023-03-06T12:34:00.748Z,387.00